createdAt,value
2022-08-07T00:02:36.093Z,52.46
2022-08-07T00:04:09.673Z,52.36
2022-08-07T00:06:40.969Z,52.38
2022-08-07T00:09:21.215Z,52.63
2022-08-07T00:11:56.012Z,52.54
2022-08-07T00:14:31.263Z,52.44
2022-08-07T00:17:03.006Z,52.44
2022-08-07T00:20:00.668Z,52.51
2022-08-07T00:22:24.537Z,52.46
2022-08-07T00:25:15.831Z,52.59
2022-08-07T00:27:52.411Z,52.57
2022-08-07T00:30:27.121Z,52.47
2022-08-07T00:32:59.393Z,52.85
2022-08-07T00:35:29.715Z,52.76
2022-08-07T00:37:58.554Z,52.89
2022-08-07T00:40:36.398Z,52.54
2022-08-07T00:43:09.699Z,52.55
2022-08-07T00:45:40.365Z,52.58
2022-08-07T00:48:11.106Z,52.34
2022-08-07T00:50:43.771Z,52.39
2022-08-07T00:53:20.837Z,52.57
2022-08-07T00:56:00.782Z,52.14
2022-08-07T00:58:30.980Z,52.26
2022-08-07T01:00:58.859Z,52.44
2022-08-07T01:03:55.611Z,52.06
2022-08-07T01:06:16.381Z,52.23
2022-08-07T01:08:53.486Z,52.16
2022-08-07T01:12:09.387Z,52.09
2022-08-07T01:14:10.343Z,52.12
2022-08-07T01:16:38.371Z,52.00
2022-08-07T01:19:18.333Z,51.99
2022-08-07T01:21:53.284Z,51.80
2022-08-07T01:24:25.009Z,52.04
2022-08-07T01:26:52.679Z,51.96
2022-08-07T01:29:27.817Z,51.94
2022-08-07T01:31:59.332Z,52.07
2022-08-07T01:34:31.422Z,52.09
2022-08-07T01:37:01.853Z,51.94
2022-08-07T01:39:40.922Z,51.98
2022-08-07T01:42:38.884Z,51.99
2022-08-07T01:45:22.997Z,51.74
2022-08-07T01:48:29.816Z,51.76
2022-08-07T01:50:55.654Z,51.94
2022-08-07T01:54:11.745Z,51.60
2022-08-07T01:56:22.379Z,51.81
2022-08-07T01:59:03.542Z,51.70
2022-08-07T02:02:02.226Z,51.58
2022-08-07T02:04:30.985Z,51.77
2022-08-07T02:07:02.972Z,51.99
2022-08-07T02:09:52.401Z,51.91
2022-08-07T02:12:31.026Z,51.96
2022-08-07T02:15:01.359Z,51.54
2022-08-07T02:17:38.503Z,52.08
2022-08-07T02:20:17.446Z,52.05
2022-08-07T02:22:55.225Z,52.23
2022-08-07T02:26:10.589Z,51.94
2022-08-07T02:28:15.588Z,52.02
2022-08-07T02:30:55.056Z,51.78
2022-08-07T02:33:42.103Z,51.80
2022-08-07T02:36:28.601Z,51.65
2022-08-07T02:39:16.205Z,51.80
2022-08-07T02:41:47.251Z,51.81
2022-08-07T02:44:18.696Z,52.03
2022-08-07T02:46:52.588Z,51.97
2022-08-07T02:49:28.668Z,51.97
2022-08-07T02:52:12.992Z,52.07
2022-08-07T02:54:43.563Z,52.25
2022-08-07T02:57:14.448Z,52.00
2022-08-07T02:59:54.988Z,51.93
2022-08-07T03:02:29.290Z,51.94
2022-08-07T03:04:58.765Z,52.09
2022-08-07T03:07:58.967Z,52.27
2022-08-07T03:10:18.171Z,52.23
2022-08-07T03:12:52.757Z,52.05
2022-08-07T03:15:30.366Z,52.04
2022-08-07T03:18:07.632Z,52.02
2022-08-07T03:20:36.831Z,51.91
2022-08-07T03:23:06.915Z,51.87
2022-08-07T03:25:46.774Z,51.86
2022-08-07T03:28:38.039Z,52.19
2022-08-07T03:31:24.419Z,51.91
2022-08-07T03:34:02.380Z,51.94
2022-08-07T03:36:34.324Z,52.16
2022-08-07T03:39:06.577Z,51.75
2022-08-07T03:41:42.231Z,51.79
2022-08-07T03:44:16.575Z,52.33
2022-08-07T03:47:11.215Z,52.72
2022-08-07T03:49:36.494Z,52.09
2022-08-07T03:52:04.049Z,52.20
2022-08-07T03:54:35.606Z,52.07
2022-08-07T03:57:07.601Z,52.63
2022-08-07T03:59:37.412Z,52.27
2022-08-07T04:02:15.091Z,52.19
2022-08-07T04:04:43.104Z,53.05
2022-08-07T04:07:35.831Z,52.15
2022-08-07T04:10:02.121Z,52.28
2022-08-07T04:12:35.242Z,52.44
2022-08-07T04:15:03.112Z,52.36
2022-08-07T04:18:11.263Z,52.31
2022-08-07T04:20:22.814Z,52.41
2022-08-07T04:23:01.267Z,52.36
2022-08-07T04:25:35.954Z,52.70
2022-08-07T04:28:08.445Z,52.27
2022-08-07T04:30:55.526Z,52.36
2022-08-07T04:33:27.598Z,52.96
2022-08-07T04:35:55.876Z,52.46
2022-08-07T04:38:27.738Z,52.95
2022-08-07T04:40:57.019Z,53.05
2022-08-07T04:44:10.111Z,52.67
2022-08-07T04:47:08.263Z,52.73
2022-08-07T04:49:58.043Z,52.31
2022-08-07T04:53:04.234Z,52.27
2022-08-07T04:58:14.298Z,52.17
2022-08-07T05:01:55.424Z,52.24
2022-08-07T05:04:43.877Z,51.85
2022-08-07T05:07:29.162Z,51.76
2022-08-07T05:10:07.882Z,51.78
2022-08-07T05:12:51.531Z,51.69
2022-08-07T05:15:27.553Z,51.87
2022-08-07T05:18:08.659Z,51.74
2022-08-07T05:20:45.013Z,51.70
2022-08-07T05:23:31.020Z,51.49
2022-08-07T05:26:13.091Z,51.10
2022-08-07T05:28:50.386Z,51.34
2022-08-07T05:31:34.642Z,50.83
2022-08-07T05:34:11.076Z,51.06
2022-08-07T05:36:43.499Z,50.14
2022-08-07T05:40:05.902Z,50.67
2022-08-07T05:42:12.275Z,50.21
2022-08-07T05:44:52.704Z,50.41
2022-08-07T05:47:38.408Z,50.69
2022-08-07T05:50:17.944Z,50.74
2022-08-07T05:52:45.078Z,50.74
2022-08-07T05:55:14.223Z,50.54
2022-08-07T05:57:46.457Z,50.85
2022-08-07T06:00:17.759Z,50.77
2022-08-07T06:02:58.096Z,50.90
2022-08-07T06:05:28.863Z,50.64
2022-08-07T06:08:14.818Z,49.80
2022-08-07T06:10:51.365Z,49.47
2022-08-07T06:14:10.802Z,49.07
2022-08-07T06:16:13.499Z,48.52
2022-08-07T06:18:43.152Z,48.39
2022-08-07T06:22:16.732Z,48.05
2022-08-07T06:24:46.200Z,48.32
2022-08-07T06:26:54.428Z,48.48
2022-08-07T06:29:27.409Z,47.75
2022-08-07T06:31:58.348Z,47.55
2022-08-07T06:34:29.760Z,48.03
2022-08-07T06:36:59.001Z,48.24
2022-08-07T06:40:16.668Z,48.29
2022-08-07T06:42:32.939Z,47.79
2022-08-07T06:45:17.909Z,48.45
2022-08-07T06:47:58.391Z,47.32
2022-08-07T06:50:36.154Z,47.56
2022-08-07T06:53:18.606Z,48.01
2022-08-07T06:56:01.189Z,47.71
2022-08-07T06:58:35.808Z,47.18
2022-08-07T07:01:14.252Z,46.97
2022-08-07T07:03:50.203Z,46.91
2022-08-07T07:06:26.724Z,46.79
2022-08-07T07:08:55.118Z,46.80
2022-08-07T07:12:08.309Z,46.43
2022-08-07T07:14:14.134Z,46.08
2022-08-07T07:16:49.840Z,45.63
2022-08-07T07:19:55.652Z,45.33
2022-08-07T07:22:35.600Z,46.17
2022-08-07T07:26:33.051Z,45.57
2022-08-07T07:28:42.669Z,45.38
2022-08-07T07:31:25.643Z,45.44
2022-08-07T07:34:03.869Z,45.59
2022-08-07T07:36:33.759Z,45.47
2022-08-07T07:39:03.636Z,45.18
2022-08-07T07:41:50.878Z,46.31
2022-08-07T07:44:26.139Z,46.29
2022-08-07T07:47:01.231Z,45.83
2022-08-07T07:50:36.178Z,45.24
2022-08-07T07:52:28.781Z,45.11
2022-08-07T07:54:56.003Z,43.88
2022-08-07T07:57:51.654Z,41.71
2022-08-07T08:00:20.986Z,39.97
2022-08-07T08:03:05.373Z,38.93
2022-08-07T08:05:50.846Z,37.21
2022-08-07T08:08:35.528Z,37.07
2022-08-07T08:11:08.671Z,36.15
2022-08-07T08:13:53.848Z,37.79
2022-08-07T08:16:31.224Z,38.33
2022-08-07T08:19:00.531Z,38.30
2022-08-07T08:22:07.749Z,37.11
2022-08-07T08:25:09.390Z,36.80
2022-08-07T08:27:57.094Z,36.12
2022-08-07T08:30:29.050Z,37.75
2022-08-07T08:33:03.019Z,37.40
2022-08-07T08:35:39.441Z,38.79
2022-08-07T08:38:20.731Z,38.52
2022-08-07T08:41:13.747Z,39.39
2022-08-07T08:43:58.678Z,38.54
2022-08-07T08:46:38.479Z,38.10
2022-08-07T08:49:17.484Z,38.09
2022-08-07T08:52:35.987Z,38.44
2022-08-07T08:55:20.997Z,39.58
2022-08-07T08:58:32.076Z,39.82
2022-08-07T09:01:15.360Z,41.21
2022-08-07T09:04:00.308Z,39.88
2022-08-07T09:06:40.300Z,40.87
2022-08-07T09:09:33.189Z,40.53
2022-08-07T09:12:36.156Z,39.88
2022-08-07T09:16:24.459Z,40.61
2022-08-07T09:18:11.419Z,41.27
2022-08-07T09:20:57.989Z,40.84
2022-08-07T09:24:33.686Z,40.24
2022-08-07T09:26:47.884Z,41.03
2022-08-07T09:30:04.039Z,41.66
2022-08-07T09:32:53.458Z,40.93
2022-08-07T09:36:02.638Z,41.25
2022-08-07T09:38:53.601Z,40.66
2022-08-07T09:42:04.060Z,40.70
2022-08-07T09:44:58.706Z,41.35
2022-08-07T09:48:00.907Z,41.53
2022-08-07T09:50:51.486Z,40.47
2022-08-07T09:53:23.313Z,40.48
2022-08-07T09:56:37.441Z,40.74
2022-08-07T09:59:14.036Z,39.57
2022-08-07T10:02:17.047Z,39.24
2022-08-07T10:05:01.428Z,39.56
2022-08-07T10:07:53.419Z,40.40
2022-08-07T10:10:24.929Z,39.18
2022-08-07T10:14:00.767Z,40.38
2022-08-07T10:16:50.532Z,40.38
2022-08-07T10:19:40.020Z,38.47
2022-08-07T10:22:36.878Z,38.31
2022-08-07T10:25:43.028Z,37.05
2022-08-07T10:28:49.567Z,36.24
2022-08-07T10:31:58.539Z,36.83
2022-08-07T10:34:40.375Z,35.83
2022-08-07T10:37:48.193Z,35.50
2022-08-07T10:40:41.763Z,34.84
2022-08-07T10:43:34.773Z,35.33
2022-08-07T10:46:13.074Z,34.87
2022-08-07T10:48:57.532Z,35.15
2022-08-07T10:52:01.855Z,36.34
2022-08-07T10:54:53.343Z,36.90
2022-08-07T10:58:11.074Z,36.62
2022-08-07T11:01:11.760Z,36.27
2022-08-07T11:03:52.484Z,36.96
2022-08-07T11:06:42.123Z,36.17
2022-08-07T11:10:08.403Z,36.49
2022-08-07T11:12:31.263Z,37.68
2022-08-07T11:15:04.301Z,37.25
2022-08-07T11:18:03.747Z,36.72
2022-08-07T11:20:46.740Z,36.63
2022-08-07T11:23:30.513Z,37.08
2022-08-07T11:26:13.157Z,37.32
2022-08-07T11:28:53.311Z,37.03
2022-08-07T11:31:53.922Z,36.41
2022-08-07T11:34:28.878Z,36.52
2022-08-07T11:37:06.707Z,37.42
2022-08-07T11:40:19.207Z,37.69
2022-08-07T11:43:11.590Z,38.04
2022-08-07T11:46:19.897Z,39.00
2022-08-07T11:49:49.987Z,38.45
2022-08-07T11:52:29.150Z,39.24
2022-08-07T11:56:25.149Z,38.13
2022-08-07T11:58:38.712Z,38.89
2022-08-07T12:01:06.703Z,38.84
2022-08-07T12:04:11.396Z,38.45
2022-08-07T12:07:08.089Z,39.26
2022-08-07T12:10:08.644Z,39.45
2022-08-07T12:12:55.233Z,39.24
2022-08-07T12:15:46.216Z,39.68
2022-08-07T12:18:30.523Z,38.59
2022-08-07T12:21:21.238Z,38.10
2022-08-07T12:24:37.703Z,38.08
2022-08-07T12:27:27.738Z,38.53
2022-08-07T12:30:05.281Z,38.37
2022-08-07T12:32:45.145Z,38.31
2022-08-07T12:35:16.173Z,38.28
2022-08-07T12:38:11.417Z,39.08
2022-08-07T12:40:48.488Z,38.37
2022-08-07T12:44:02.908Z,37.86
2022-08-07T12:46:34.696Z,38.78
2022-08-07T12:49:48.440Z,38.79
2022-08-07T12:52:46.535Z,38.65
2022-08-07T12:55:40.975Z,38.54
2022-08-07T12:58:12.955Z,38.90
2022-08-07T13:00:50.312Z,39.11
2022-08-07T13:03:59.151Z,38.09
2022-08-07T13:06:36.524Z,38.34
2022-08-07T13:10:19.312Z,38.36
2022-08-07T13:13:02.449Z,39.02
2022-08-07T13:15:37.327Z,38.54
2022-08-07T13:19:01.232Z,38.37
2022-08-07T13:21:57.649Z,38.19
2022-08-07T13:24:37.389Z,39.05
2022-08-07T13:27:14.106Z,38.87
2022-08-07T13:29:56.889Z,38.79
2022-08-07T13:32:41.258Z,39.08
2022-08-07T13:35:21.491Z,38.44
2022-08-07T13:38:01.468Z,38.46
2022-08-07T13:40:35.738Z,38.57
2022-08-07T13:43:15.347Z,38.34
2022-08-07T13:46:11.105Z,37.89
2022-08-07T13:48:38.728Z,37.55
2022-08-07T13:51:28.113Z,37.35
2022-08-07T13:54:00.705Z,38.09
2022-08-07T13:56:36.016Z,38.10
2022-08-07T13:59:31.415Z,37.36
2022-08-07T14:02:08.705Z,37.72
2022-08-07T14:04:50.211Z,37.81
2022-08-07T14:07:24.212Z,37.52
2022-08-07T14:10:01.230Z,36.89
2022-08-07T14:12:49.440Z,36.01
2022-08-07T14:15:35.031Z,36.69
2022-08-07T14:18:28.937Z,36.41
2022-08-07T14:22:00.477Z,35.88
2022-08-07T14:24:05.133Z,36.88
2022-08-07T14:26:50.700Z,36.33
2022-08-07T14:30:06.590Z,36.30
2022-08-07T14:32:15.134Z,37.02
2022-08-07T14:34:46.952Z,36.04
2022-08-07T14:37:18.281Z,36.14
2022-08-07T14:40:15.885Z,36.62
2022-08-07T14:43:54.771Z,36.91
2022-08-07T14:51:23.955Z,37.00
2022-08-07T14:54:09.767Z,37.43
2022-08-07T14:56:46.774Z,35.74
2022-08-07T15:00:05.499Z,36.68
2022-08-07T15:02:31.677Z,36.86
2022-08-07T15:05:02.514Z,36.62
2022-08-07T15:07:51.392Z,36.74
2022-08-07T15:10:26.628Z,36.52
2022-08-07T15:13:11.664Z,36.25
2022-08-07T15:15:42.789Z,36.64
2022-08-07T15:18:34.027Z,36.65
2022-08-07T15:26:55.490Z,36.86
2022-08-07T15:35:16.757Z,36.94
2022-08-07T15:46:32.472Z,37.62
2022-08-07T15:49:13.131Z,37.79
2022-08-07T15:54:39.471Z,38.69
2022-08-07T15:57:10.714Z,38.20
2022-08-07T15:59:56.749Z,38.52
2022-08-07T16:02:30.031Z,39.17
2022-08-07T16:05:15.357Z,38.63
2022-08-07T16:08:32.608Z,38.42
2022-08-07T16:10:37.454Z,38.94
2022-08-07T16:13:39.541Z,39.26
2022-08-07T16:16:48.206Z,38.95
2022-08-07T16:19:43.194Z,39.44
2022-08-07T16:22:36.265Z,39.25
2022-08-07T16:25:54.692Z,39.39
2022-08-07T16:30:06.617Z,39.21
2022-08-07T16:32:42.373Z,39.49
2022-08-07T16:35:51.751Z,39.60
2022-08-07T16:38:09.741Z,39.60
2022-08-07T16:41:02.192Z,39.67
2022-08-07T16:44:05.886Z,39.77
2022-08-07T16:47:17.878Z,39.72
2022-08-07T16:50:39.416Z,39.48
2022-08-07T16:54:01.357Z,39.87
2022-08-07T16:56:22.302Z,39.58
2022-08-07T16:59:11.010Z,39.96
2022-08-07T17:02:05.372Z,40.17
2022-08-07T17:06:01.444Z,40.32
2022-08-07T17:07:59.444Z,40.32
2022-08-07T17:10:54.815Z,40.18
2022-08-07T17:13:41.843Z,40.07
2022-08-07T17:16:28.629Z,40.21
2022-08-07T17:19:04.753Z,40.29
2022-08-07T17:21:51.591Z,40.58
2022-08-07T17:24:31.377Z,40.72
2022-08-07T17:26:57.962Z,40.90
2022-08-07T17:30:16.052Z,40.88
2022-08-07T17:32:52.030Z,41.13
2022-08-07T17:35:50.271Z,41.23
2022-08-07T17:38:33.762Z,41.01
2022-08-07T17:42:00.909Z,41.36
2022-08-07T17:44:33.957Z,41.35
2022-08-07T17:47:42.412Z,41.88
2022-08-07T17:50:22.875Z,41.65
2022-08-07T17:53:05.926Z,41.50
2022-08-07T17:56:00.055Z,41.88
2022-08-07T17:58:46.449Z,41.93
2022-08-07T18:01:21.301Z,41.90
2022-08-07T18:04:16.458Z,41.76
2022-08-07T18:07:20.586Z,41.56
2022-08-07T18:10:06.596Z,41.90
2022-08-07T18:13:15.291Z,41.87
2022-08-07T18:15:59.087Z,42.89
2022-08-07T18:19:02.629Z,44.87
2022-08-07T18:21:51.847Z,46.25
2022-08-07T18:24:34.155Z,47.80
2022-08-07T18:27:17.943Z,49.77
2022-08-07T18:30:31.156Z,50.69
2022-08-07T18:33:28.070Z,51.59
2022-08-07T18:36:33.095Z,52.23
2022-08-07T18:40:06.754Z,52.95
2022-08-07T18:42:19.528Z,53.07
2022-08-07T18:45:40.202Z,54.82
2022-08-07T18:47:45.377Z,57.34
2022-08-07T18:50:38.715Z,59.20
2022-08-07T18:53:39.395Z,61.99
2022-08-07T18:56:32.842Z,62.24
2022-08-07T18:59:47.522Z,63.62
2022-08-07T19:02:32.158Z,64.16
2022-08-07T19:05:22.464Z,64.45
2022-08-07T19:07:58.095Z,65.36
2022-08-07T19:10:51.955Z,66.33
2022-08-07T19:13:25.934Z,66.36
2022-08-07T19:17:05.842Z,67.30
2022-08-07T19:19:37.872Z,67.04
2022-08-07T19:22:44.819Z,67.63
2022-08-07T19:26:22.642Z,68.35
2022-08-07T19:28:29.855Z,67.89
2022-08-07T19:31:42.158Z,67.60
2022-08-07T19:33:58.122Z,68.32
2022-08-07T19:36:30.569Z,65.34
2022-08-07T19:38:59.057Z,67.12
2022-08-07T19:41:44.760Z,67.83
2022-08-07T19:44:21.709Z,68.95
2022-08-07T19:46:55.591Z,69.72
2022-08-07T19:49:58.621Z,70.24
2022-08-07T19:52:27.515Z,69.46
2022-08-07T19:54:57.264Z,70.21
2022-08-07T19:58:01.821Z,70.07
2022-08-07T20:00:29.190Z,70.29
2022-08-07T20:03:03.939Z,69.84
2022-08-07T20:05:59.781Z,70.04
2022-08-07T20:08:24.434Z,69.96
2022-08-07T20:11:09.909Z,69.45
2022-08-07T20:13:46.051Z,69.55
2022-08-07T20:16:36.339Z,69.79
2022-08-07T20:19:10.866Z,69.88
2022-08-07T20:21:47.457Z,69.90
2022-08-07T20:24:23.168Z,70.26
2022-08-07T20:26:54.667Z,69.81
2022-08-07T20:29:48.181Z,70.12
2022-08-07T20:32:25.542Z,70.50
2022-08-07T20:34:57.291Z,71.15
2022-08-07T20:37:29.673Z,70.74
2022-08-07T20:40:04.999Z,70.21
2022-08-07T20:42:56.255Z,70.69
2022-08-07T20:46:24.349Z,70.16
2022-08-07T20:48:28.372Z,70.35
2022-08-07T20:51:04.185Z,70.10
2022-08-07T20:54:03.490Z,69.91
2022-08-07T20:56:29.471Z,69.36
2022-08-07T20:59:01.489Z,69.11
2022-08-07T21:01:29.826Z,69.05
2022-08-07T21:04:22.402Z,69.36
2022-08-07T21:06:56.628Z,69.19
2022-08-07T21:09:35.495Z,69.14
2022-08-07T21:12:29.098Z,69.23
2022-08-07T21:14:59.663Z,69.57
2022-08-07T21:18:01.771Z,69.85
2022-08-07T21:20:29.831Z,70.09
2022-08-07T21:23:07.742Z,70.10
2022-08-07T21:25:44.670Z,70.24
2022-08-07T21:28:55.111Z,70.02
2022-08-07T21:32:42.439Z,70.85
2022-08-07T21:34:32.281Z,69.87
2022-08-07T21:37:57.228Z,68.92
2022-08-07T21:40:36.056Z,68.96
2022-08-07T21:43:11.042Z,68.32
2022-08-07T21:46:09.386Z,68.31
2022-08-07T21:48:43.795Z,68.33
2022-08-07T21:51:51.593Z,67.70
2022-08-07T21:54:34.129Z,67.95
2022-08-07T21:57:31.234Z,68.14
2022-08-07T22:00:22.619Z,67.78
2022-08-07T22:03:10.913Z,67.63
2022-08-07T22:06:06.132Z,67.25
2022-08-07T22:08:57.009Z,67.39
2022-08-07T22:11:24.532Z,67.03
2022-08-07T22:14:00.191Z,67.18
2022-08-07T22:16:44.882Z,66.26
2022-08-07T22:19:29.675Z,66.84
2022-08-07T22:22:17.663Z,65.67
2022-08-07T22:24:55.828Z,65.28
2022-08-07T22:28:07.587Z,64.89
2022-08-07T22:30:52.087Z,64.43
2022-08-07T22:33:53.347Z,65.17
2022-08-07T22:36:46.589Z,65.33
2022-08-07T22:39:53.518Z,65.56
2022-08-07T22:42:29.393Z,65.57
2022-08-07T22:45:02.439Z,65.46
2022-08-07T22:48:13.721Z,65.04
2022-08-07T22:50:53.378Z,64.19
2022-08-07T22:54:07.982Z,64.48
2022-08-07T22:57:00.923Z,64.21
2022-08-07T22:59:52.122Z,64.81
2022-08-07T23:02:30.012Z,65.21
2022-08-07T23:06:08.220Z,64.25
2022-08-07T23:08:38.092Z,64.17
2022-08-07T23:11:50.246Z,64.50
2022-08-07T23:14:40.830Z,64.01
2022-08-07T23:17:25.710Z,63.81
2022-08-07T23:20:51.373Z,64.38
2022-08-07T23:24:05.425Z,64.30
2022-08-07T23:26:27.513Z,63.89
2022-08-07T23:29:42.838Z,63.21
2022-08-07T23:34:19.549Z,62.74
2022-08-07T23:35:19.312Z,63.16
2022-08-07T23:38:08.490Z,62.92
2022-08-07T23:40:49.298Z,62.56
2022-08-07T23:43:23.595Z,62.82
2022-08-07T23:46:33.817Z,62.20
2022-08-07T23:49:15.266Z,62.76
2022-08-07T23:53:05.882Z,63.14
2022-08-07T23:54:46.123Z,63.03
2022-08-07T23:57:30.563Z,63.29
